Observation data for Friona on 12/08/2018      Previous  Date       Current Mesonet Observations  Soil Data  Daily Summary Page  Observations in Plain Language
KFAS 080600Z 07006KT M00/M02 A3029 RMK A01 T10041019  RH  090%=      5-min Rain = 0
KFAS 080605Z 07007KT M00/M02 A3029 RMK A01 T10041019  RH  090%=      5-min Rain = 0
KFAS 080610Z 07006KT M01/M02 A3029 RMK A01 T10051019  RH  091%=      5-min Rain = 0
KFAS 080615Z 07007KT M01/M02 A3029 RMK A01 T10061020  RH  091%=      5-min Rain = 0
KFAS 080620Z 07006KT M01/M02 A3029 RMK A01 T10061020  RH  091%=      5-min Rain = 0
KFAS 080625Z 07005KT M01/M02 A3029 RMK A01 T10061019  RH  092%=      5-min Rain = 0
KFAS 080630Z 07005KT M01/M02 A3029 RMK A01 T10071019  RH  092%=      5-min Rain = 0
KFAS 080635Z 09005KT M01/M02 A3029 RMK A01 T10071019  RH  092%=      5-min Rain = 0
KFAS 080640Z 09005KT M01/M02 A3029 RMK A01 T10071019  RH  092%=      5-min Rain = 0
KFAS 080645Z 09004KT M01/M02 A3029 RMK A01 T10071019  RH  093%=      5-min Rain = 0
KFAS 080650Z 08004KT M01/M02 A3029 RMK A01 T10071019  RH  093%=      5-min Rain = 0
KFAS 080655Z 07003KT M01/M02 A3029 RMK A01 T10071018  RH  093%=      5-min Rain = 0
KFAS 080700Z 08003KT M01/M02 A3029 RMK A01 T10071018  RH  093%=      5-min Rain = 0
KFAS 080705Z 08003KT M01/M02 A3029 RMK A01 T10071018  RH  093%=      5-min Rain = 0
KFAS 080710Z 07002KT M01/M02 A3028 RMK A01 T10071018  RH  093%=      5-min Rain = 0
KFAS 080715Z 05002KT M01/M02 A3028 RMK A01 T10071018  RH  093%=      5-min Rain = 0
KFAS 080720Z 04003KT M01/M02 A3028 RMK A01 T10071017  RH  093%=      5-min Rain = 0
KFAS 080725Z 04004KT M01/M02 A3028 RMK A01 T10071017  RH  094%=      5-min Rain = 0
KFAS 080730Z 04004KT M01/M02 A3028 RMK A01 T10071017  RH  094%=      5-min Rain = 0
KFAS 080735Z 03004KT M01/M02 A3028 RMK A01 T10071017  RH  094%=      5-min Rain = 0
KFAS 080740Z 02005KT M01/M02 A3027 RMK A01 T10071018  RH  094%=      5-min Rain = 0
KFAS 080745Z 02005KT M01/M02 A3027 RMK A01 T10071018  RH  093%=      5-min Rain = 0
KFAS 080750Z 01005KT M01/M02 A3028 RMK A01 T10071019  RH  093%=      5-min Rain = 0
KFAS 080755Z 01005KT M01/M02 A3028 RMK A01 T10081020  RH  092%=      5-min Rain = 0
KFAS 080800Z 01004KT M01/M02 A3028 RMK A01 T10081021  RH  091%=      5-min Rain = 0
KFAS 080805Z 35003KT M01/M02 A3028 RMK A01 T10071021  RH  091%=      5-min Rain = 0
KFAS 080810Z 36004KT M01/M02 A3028 RMK A01 T10071022  RH  091%=      5-min Rain = 0
KFAS 080815Z 36004KT M01/M02 A3028 RMK A01 T10071022  RH  090%=      5-min Rain = 0
KFAS 080820Z 01005KT M01/M02 A3027 RMK A01 T10071023  RH  090%=      5-min Rain = 0
KFAS 080825Z 01004KT M01/M02 A3027 RMK A01 T10071024  RH  089%=      5-min Rain = 0
KFAS 080830Z 01004KT M01/M03 A3028 RMK A01 T10071025  RH  088%=      5-min Rain = 0
KFAS 080835Z 36005KT M01/M03 A3027 RMK A01 T10071025  RH  088%=      5-min Rain = 0
KFAS 080840Z 35006KT M01/M03 A3027 RMK A01 T10071026  RH  088%=      5-min Rain = 0
KFAS 080845Z 35006KT M01/M03 A3027 RMK A01 T10061026  RH  087%=      5-min Rain = 0
KFAS 080850Z 35006KT M01/M03 A3027 RMK A01 T10061026  RH  087%=      5-min Rain = 0
KFAS 080855Z 35004KT M01/M03 A3027 RMK A01 T10061026  RH  087%=      5-min Rain = 0
KFAS 080900Z 36003KT M01/M03 A3028 RMK A01 T10061026  RH  086%=      5-min Rain = 0
KFAS 080905Z 00005KT M01/M03 A3027 RMK A01 T10061027  RH  086%=      5-min Rain = 0
KFAS 080910Z 35005KT M01/M03 A3027 RMK A01 T10061026  RH  086%=      5-min Rain = 0
KFAS 080915Z 35005KT M01/M03 A3027 RMK A01 T10061026  RH  086%=      5-min Rain = 0
KFAS 080920Z 36006KT M01/M03 A3027 RMK A01 T10061026  RH  087%=      5-min Rain = 0
KFAS 080925Z 00005KT M01/M03 A3027 RMK A01 T10061026  RH  087%=      5-min Rain = 0
KFAS 080930Z 36004KT M01/M03 A3027 RMK A01 T10061026  RH  087%=      5-min Rain = 0
KFAS 080935Z 36006KT M01/M03 A3026 RMK A01 T10061026  RH  087%=      5-min Rain = 0
KFAS 080940Z 00006KT M01/M03 A3026 RMK A01 T10051026  RH  087%=      5-min Rain = 0
KFAS 080945Z 00007KT M01/M03 A3026 RMK A01 T10051026  RH  086%=      5-min Rain = 0
KFAS 080950Z 00007KT M01/M03 A3026 RMK A01 T10051027  RH  086%=      5-min Rain = 0
KFAS 080955Z 01006KT M01/M03 A3026 RMK A01 T10051026  RH  086%=      5-min Rain = 0
KFAS 081000Z 01007KT M01/M03 A3026 RMK A01 T10051026  RH  086%=      5-min Rain = 0
KFAS 081005Z 01008KT M01/M03 A3026 RMK A01 T10051027  RH  086%=      5-min Rain = 0
KFAS 081010Z 00007KT M01/M03 A3026 RMK A01 T10051028  RH  085%=      5-min Rain = 0
KFAS 081015Z 01007KT M01/M03 A3025 RMK A01 T10051028  RH  085%=      5-min Rain = 0
KFAS 081020Z 00007KT M01/M03 A3025 RMK A01 T10051028  RH  085%=      5-min Rain = 0
KFAS 081025Z 01007KT M01/M03 A3025 RMK A01 T10051028  RH  085%=      5-min Rain = 0
KFAS 081030Z 00006KT M01/M03 A3025 RMK A01 T10051028  RH  085%=      5-min Rain = 0
KFAS 081035Z 00005KT M01/M03 A3025 RMK A01 T10051028  RH  085%=      5-min Rain = 0
KFAS 081040Z 00006KT M00/M03 A3025 RMK A01 T10041028  RH  085%=      5-min Rain = 0
KFAS 081045Z 00005KT M00/M03 A3025 RMK A01 T10041028  RH  085%=      5-min Rain = 0
KFAS 081050Z 00006KT M01/M03 A3025 RMK A01 T10051029  RH  084%=      5-min Rain = 0
KFAS 081055Z 01006KT M00/M03 A3025 RMK A01 T10041029  RH  084%=      5-min Rain = 0
KFAS 081100Z 00007KT M00/M03 A3025 RMK A01 T10041029  RH  084%=      5-min Rain = 0
KFAS 081105Z 01006KT M00/M03 A3025 RMK A01 T10041029  RH  084%=      5-min Rain = 0
KFAS 081110Z 01006KT M00/M03 A3025 RMK A01 T10041028  RH  084%=      5-min Rain = 0
KFAS 081115Z 01007KT M01/M03 A3025 RMK A01 T10051030  RH  084%=      5-min Rain = 0
KFAS 081120Z 01007KT M01/M03 A3025 RMK A01 T10051030  RH  084%=      5-min Rain = 0
KFAS 081125Z 01006KT M01/M03 A3025 RMK A01 T10051030  RH  084%=      5-min Rain = 0
KFAS 081130Z 00006KT M01/M03 A3025 RMK A01 T10051030  RH  083%=      5-min Rain = 0
KFAS 081135Z 01005KT M01/M03 A3025 RMK A01 T10051031  RH  083%=      5-min Rain = 0
KFAS 081140Z 01006KT M01/M03 A3025 RMK A01 T10051031  RH  083%=      5-min Rain = 0
KFAS 081145Z 36006KT M01/M03 A3025 RMK A01 T10051031  RH  083%=      5-min Rain = 0
KFAS 081150Z 01005KT M01/M03 A3025 RMK A01 T10051031  RH  083%=      5-min Rain = 0
KFAS 081155Z 01006KT M01/M03 A3025 RMK A01 T10051031  RH  083%=      5-min Rain = 0
KFAS 081200Z 01005KT M01/M03 A3025 RMK A01 T10051031  RH  083%=      5-min Rain = 0
KFAS 081205Z 01005KT M01/M03 A3025 RMK A01 T10051031  RH  083%=      5-min Rain = 0
KFAS 081210Z 01006KT M01/M03 A3025 RMK A01 T10051031  RH  083%=      5-min Rain = 0
KFAS 081215Z 02006KT M01/M03 A3025 RMK A01 T10061031  RH  083%=      5-min Rain = 0
KFAS 081220Z 02006KT M01/M03 A3025 RMK A01 T10061032  RH  083%=      5-min Rain = 0
KFAS 081225Z 02006KT M01/M03 A3025 RMK A01 T10071032  RH  084%=      5-min Rain = 0
KFAS 081230Z 02007KT M01/M03 A3025 RMK A01 T10081033  RH  084%=      5-min Rain = 0
KFAS 081235Z 02006KT M01/M03 A3025 RMK A01 T10091033  RH  084%=      5-min Rain = 0
KFAS 081240Z 02007KT M01/M03 A3025 RMK A01 T10091034  RH  084%=      5-min Rain = 0
KFAS 081245Z 02007KT M01/M03 A3025 RMK A01 T10101034  RH  084%=      5-min Rain = 0
KFAS 081250Z 02006KT M01/M03 A3025 RMK A01 T10111034  RH  085%=      5-min Rain = 0
KFAS 081255Z 02006KT M01/M03 A3025 RMK A01 T10111034  RH  085%=      5-min Rain = 0
KFAS 081300Z 02007KT M01/M03 A3025 RMK A01 T10111034  RH  085%=      5-min Rain = 0
KFAS 081305Z 01006KT M01/M03 A3025 RMK A01 T10121034  RH  085%=      5-min Rain = 0
KFAS 081310Z 02007KT M01/M03 A3025 RMK A01 T10121034  RH  085%=      5-min Rain = 0
KFAS 081315Z 02007KT M01/M03 A3025 RMK A01 T10121034  RH  085%=      5-min Rain = 0
KFAS 081320Z 01006KT M01/M03 A3026 RMK A01 T10111034  RH  085%=      5-min Rain = 0
KFAS 081325Z 01006KT M01/M03 A3026 RMK A01 T10111034  RH  085%=      5-min Rain = 0
KFAS 081330Z 02007KT M01/M03 A3026 RMK A01 T10111034  RH  085%=      5-min Rain = 0
KFAS 081335Z 02007KT M01/M03 A3026 RMK A01 T10111034  RH  085%=      5-min Rain = 0
KFAS 081340Z 02007KT M01/M03 A3026 RMK A01 T10101034  RH  084%=      5-min Rain = 0
KFAS 081345Z 02007KT M01/M03 A3027 RMK A01 T10101034  RH  084%=      5-min Rain = 0
KFAS 081350Z 02007KT M01/M03 A3027 RMK A01 T10091034  RH  084%=      5-min Rain = 0
KFAS 081355Z 02007KT M01/M03 A3027 RMK A01 T10091034  RH  084%=      5-min Rain = 0
KFAS 081400Z 03007KT M01/M03 A3027 RMK A01 T10081034  RH  083%=      5-min Rain = 0
KFAS 081405Z 03007KT M01/M03 A3027 RMK A01 T10081034  RH  083%=      5-min Rain = 0
KFAS 081410Z 03007KT M01/M03 A3027 RMK A01 T10071034  RH  083%=      5-min Rain = 0
KFAS 081415Z 04006KT M01/M03 A3028 RMK A01 T10071034  RH  082%=      5-min Rain = 0
KFAS 081420Z 05005KT M01/M03 A3028 RMK A01 T10071033  RH  083%=      5-min Rain = 0
KFAS 081425Z 05005KT M01/M03 A3028 RMK A01 T10071033  RH  083%=      5-min Rain = 0
KFAS 081430Z 04006KT M01/M03 A3028 RMK A01 T10071034  RH  083%=      5-min Rain = 0
KFAS 081435Z 05005KT M01/M03 A3029 RMK A01 T10061033  RH  083%=      5-min Rain = 0
KFAS 081440Z 04005KT M01/M03 A3029 RMK A01 T10061033  RH  082%=      5-min Rain = 0
KFAS 081445Z 04005KT M01/M03 A3029 RMK A01 T10051033  RH  082%=      5-min Rain = 0
KFAS 081450Z 04004KT M00/M03 A303 RMK A01 T10041034  RH  081%=      5-min Rain = 0
KFAS 081455Z 04006KT M00/M04 A303 RMK A01 T10041035  RH  080%=      5-min Rain = 0
KFAS 081500Z 04005KT M00/M04 A3029 RMK A01 T10041035  RH  080%=      5-min Rain = 0
KFAS 081505Z 04005KT M00/M04 A303 RMK A01 T10031036  RH  079%=      5-min Rain = 0
KFAS 081510Z 05005KT M00/M04 A303 RMK A01 T10031036  RH  079%=      5-min Rain = 0
KFAS 081515Z 06005KT M00/M04 A303 RMK A01 T10031035  RH  080%=      5-min Rain = 0
KFAS 081520Z 06005KT M00/M04 A3031 RMK A01 T10031035  RH  080%=      5-min Rain = 0
KFAS 081525Z 06005KT M00/M03 A3031 RMK A01 T10021034  RH  080%=      5-min Rain = 0
KFAS 081530Z 05006KT M00/M04 A3031 RMK A01 T10011036  RH  078%=      5-min Rain = 0
KFAS 081535Z 06005KT 00/03 A303 RMK A01 T00-00-33  RH  079%=      5-min Rain = 0
KFAS 081540Z 07005KT 00/M03 A3031 RMK A01 T00021032  RH  078%=      5-min Rain = 0
KFAS 081545Z 06005KT 00/M03 A3031 RMK A01 T00021034  RH  078%=      5-min Rain = 0
KFAS 081550Z 06005KT 00/M04 A3031 RMK A01 T00011035  RH  077%=      5-min Rain = 0
KFAS 081555Z 05005KT 00/M04 A3031 RMK A01 T00011036  RH  076%=      5-min Rain = 0
KFAS 081600Z 08005KT 00/M04 A3031 RMK A01 T00021035  RH  077%=      5-min Rain = 0
KFAS 081605Z 06005KT 00/M03 A3031 RMK A01 T00021034  RH  077%=      5-min Rain = 0
KFAS 081610Z 05005KT 00/M04 A3031 RMK A01 T00021035  RH  076%=      5-min Rain = 0
KFAS 081615Z 07005KT 00/M03 A3031 RMK A01 T00031033  RH  077%=      5-min Rain = 0
KFAS 081620Z 07005KT 00/M04 A3031 RMK A01 T00031035  RH  076%=      5-min Rain = 0
KFAS 081625Z 04005KT 00/M04 A3032 RMK A01 T00021036  RH  076%=      5-min Rain = 0
KFAS 081630Z 05004KT 00/M04 A3032 RMK A01 T00021037  RH  076%=      5-min Rain = 0
KFAS 081635Z 06003KT 00/M04 A3032 RMK A01 T00011037  RH  076%=      5-min Rain = 0
KFAS 081640Z 06003KT 00/M04 A3032 RMK A01 T00011035  RH  077%=      5-min Rain = 0
KFAS 081645Z 07004KT 00/M03 A3032 RMK A01 T00011034  RH  077%=      5-min Rain = 0
KFAS 081650Z 10003KT 00/M03 A3032 RMK A01 T00021033  RH  078%=      5-min Rain = 0
KFAS 081655Z 09003KT 00/M03 A3032 RMK A01 T00021033  RH  078%=      5-min Rain = 0
KFAS 081700Z 08004KT 00/M03 A3032 RMK A01 T00031031  RH  079%=      5-min Rain = 0
KFAS 081705Z 11004KT 00/M03 A3031 RMK A01 T00031030  RH  079%=      5-min Rain = 0
KFAS 081710Z 12003KT 00/M03 A3031 RMK A01 T00041030  RH  079%=      5-min Rain = 0
KFAS 081715Z 11003KT 01/M03 A3031 RMK A01 T00051029  RH  079%=      5-min Rain = 0
KFAS 081720Z 12003KT 01/M03 A3031 RMK A01 T00051030  RH  078%=      5-min Rain = 0
KFAS 081725Z 10002KT 01/M03 A3031 RMK A01 T00051030  RH  078%=      5-min Rain = 0
KFAS 081730Z 10003KT 01/M03 A3031 RMK A01 T00061029  RH  078%=      5-min Rain = 0
KFAS 081735Z 08002KT 01/M03 A3031 RMK A01 T00061030  RH  077%=      5-min Rain = 0
KFAS 081740Z 05002KT 01/M03 A303 RMK A01 T00061031  RH  077%=      5-min Rain = 0
KFAS 081745Z 06000KT 01/M03 A3031 RMK A01 T00061030  RH  077%=      5-min Rain = 0
KFAS 081750Z 00001KT 01/M03 A303 RMK A01 T00091029  RH  077%=      5-min Rain = 0
KFAS 081755Z 08003KT 01/M03 A303 RMK A01 T00101029  RH  076%=      5-min Rain = 0
KFAS 081800Z 05003KT 01/M03 A303 RMK A01 T00091030  RH  076%=      5-min Rain = 0
KFAS 081805Z 08003KT 01/M03 A303 RMK A01 T00101028  RH  076%=      5-min Rain = 0
KFAS 081810Z 09002KT 01/M03 A3029 RMK A01 T00101029  RH  076%=      5-min Rain = 0
KFAS 081815Z 03002KT 01/M03 A3029 RMK A01 T00111028  RH  076%=      5-min Rain = 0
KFAS 081820Z 30001KT 01/M03 A3029 RMK A01 T00121029  RH  074%=      5-min Rain = 0
KFAS 081825Z 25001KT 01/M03 A3029 RMK A01 T00141029  RH  074%=      5-min Rain = 0
KFAS 081830Z 05003KT 02/M03 A3029 RMK A01 T00161028  RH  073%=      5-min Rain = 0
KFAS 081835Z 04002KT 02/M03 A3029 RMK A01 T00161029  RH  073%=      5-min Rain = 0
KFAS 081840Z 02002KT 02/M03 A3028 RMK A01 T00171029  RH  072%=      5-min Rain = 0
KFAS 081845Z 34003KT 02/M03 A3028 RMK A01 T00171029  RH  072%=      5-min Rain = 0
KFAS 081850Z 36002KT 02/M03 A3028 RMK A01 T00171029  RH  072%=      5-min Rain = 0
KFAS 081855Z 03003KT 02/M03 A3028 RMK A01 T00201028  RH  071%=      5-min Rain = 0
KFAS 081900Z 02004KT 02/M03 A3028 RMK A01 T00211027  RH  071%=      5-min Rain = 0
KFAS 081905Z 34004KT 02/M03 A3027 RMK A01 T00211028  RH  070%=      5-min Rain = 0
KFAS 081910Z 30002KT 02/M03 A3027 RMK A01 T00211029  RH  070%=      5-min Rain = 0
KFAS 081915Z 01001KT 02/M03 A3027 RMK A01 T00221028  RH  070%=      5-min Rain = 0
KFAS 081920Z 29003KT 02/M03 A3027 RMK A01 T00231029  RH  069%=      5-min Rain = 0
KFAS 081925Z 25003KT 02/M03 A3026 RMK A01 T00231028  RH  069%=      5-min Rain = 0
KFAS 081930Z 09003KT 03/M03 A3026 RMK A01 T00271026  RH  069%=      5-min Rain = 0
KFAS 081935Z 10004KT 03/M03 A3025 RMK A01 T00271027  RH  068%=      5-min Rain = 0
KFAS 081940Z 10003KT 03/M03 A3025 RMK A01 T00301025  RH  068%=      5-min Rain = 0
KFAS 081945Z 14002KT 03/M03 A3025 RMK A01 T00321025  RH  066%=      5-min Rain = 0
KFAS 081950Z 09004KT 04/M03 A3024 RMK A01 T00351025  RH  065%=      5-min Rain = 0
KFAS 081955Z 10003KT 03/M03 A3024 RMK A01 T00331026  RH  066%=      5-min Rain = 0
KFAS 082000Z 13003KT 04/M02 A3024 RMK A01 T00361023  RH  066%=      5-min Rain = 0
KFAS 082005Z 16004KT 04/M02 A3023 RMK A01 T00411023  RH  063%=      5-min Rain = 0
KFAS 082010Z 09003KT 04/M02 A3023 RMK A01 T00421024  RH  063%=      5-min Rain = 0
KFAS 082015Z 13002KT 04/M02 A3023 RMK A01 T00441024  RH  062%=      5-min Rain = 0
KFAS 082020Z 20005KT 05/M02 A3023 RMK A01 T00461024  RH  061%=      5-min Rain = 0
KFAS 082025Z 18004KT 05/M02 A3023 RMK A01 T00451024  RH  061%=      5-min Rain = 0
KFAS 082030Z 19003KT 04/M03 A3023 RMK A01 T00441026  RH  061%=      5-min Rain = 0
KFAS 082035Z 14002KT 05/M02 A3023 RMK A01 T00451024  RH  061%=      5-min Rain = 0
KFAS 082040Z 14003KT 05/M03 A3023 RMK A01 T00451025  RH  061%=      5-min Rain = 0
KFAS 082045Z 08004KT 05/M03 A3023 RMK A01 T00451025  RH  061%=      5-min Rain = 0
KFAS 082050Z 05001KT 04/M03 A3022 RMK A01 T00431027  RH  061%=      5-min Rain = 0
KFAS 082055Z 36001KT 05/M03 A3022 RMK A01 T00461025  RH  060%=      5-min Rain = 0
KFAS 082100Z 06001KT 05/M02 A3022 RMK A01 T00501024  RH  059%=      5-min Rain = 0
KFAS 082105Z 05003KT 05/M03 A3022 RMK A01 T00511026  RH  058%=      5-min Rain = 0
KFAS 082110Z 06003KT 05/M02 A3022 RMK A01 T00501024  RH  059%=      5-min Rain = 0
KFAS 082115Z 10003KT 05/M02 A3021 RMK A01 T00531024  RH  058%=      5-min Rain = 0
KFAS 082120Z 08003KT 05/M03 A3021 RMK A01 T00491027  RH  058%=      5-min Rain = 0
KFAS 082125Z 07003KT 05/M03 A3021 RMK A01 T00471026  RH  059%=      5-min Rain = 0
KFAS 082130Z 03002KT 05/M03 A3021 RMK A01 T00491026  RH  059%=      5-min Rain = 0
KFAS 082135Z 12002KT 05/M03 A3021 RMK A01 T00521025  RH  058%=      5-min Rain = 0
KFAS 082140Z 13004KT 05/M03 A3021 RMK A01 T00531026  RH  057%=      5-min Rain = 0
KFAS 082145Z 11002KT 05/M03 A3021 RMK A01 T00501026  RH  058%=      5-min Rain = 0
KFAS 082150Z 13004KT 05/M02 A3021 RMK A01 T00511024  RH  059%=      5-min Rain = 0
KFAS 082155Z 14005KT 05/M02 A3021 RMK A01 T00521023  RH  059%=      5-min Rain = 0
KFAS 082200Z 18005KT 05/M02 A3021 RMK A01 T00511023  RH  059%=      5-min Rain = 0
KFAS 082205Z 15004KT 05/M02 A3021 RMK A01 T00521024  RH  058%=      5-min Rain = 0
KFAS 082210Z 13003G8KT 05/M02 A3021 RMK A01 T00531024  RH  058%=      5-min Rain = 0
KFAS 082215Z 09004KT 05/M02 A3021 RMK A01 T00521024  RH  058%=      5-min Rain = 0
KFAS 082220Z 08003KT 05/M03 A3021 RMK A01 T00501025  RH  059%=      5-min Rain = 0
KFAS 082225Z 09003KT 05/M03 A3021 RMK A01 T00501025  RH  059%=      5-min Rain = 0
KFAS 082230Z 11004KT 05/M02 A3021 RMK A01 T00491023  RH  060%=      5-min Rain = 0
KFAS 082235Z 10005KT 05/M02 A3021 RMK A01 T00471024  RH  060%=      5-min Rain = 0
KFAS 082240Z 11004KT 05/M02 A3021 RMK A01 T00461024  RH  061%=      5-min Rain = 0
KFAS 082245Z 12005KT 05/M02 A3021 RMK A01 T00451023  RH  061%=      5-min Rain = 0
KFAS 082250Z 13005KT 04/M02 A3021 RMK A01 T00441024  RH  062%=      5-min Rain = 0
KFAS 082255Z 12004KT 04/M03 A3021 RMK A01 T00441025  RH  062%=      5-min Rain = 0
KFAS 082300Z 12004KT 04/M02 A3021 RMK A01 T00431023  RH  063%=      5-min Rain = 0
KFAS 082305Z 12004KT 04/M02 A3021 RMK A01 T00421024  RH  062%=      5-min Rain = 0
KFAS 082310Z 12004KT 04/M03 A3021 RMK A01 T00401025  RH  063%=      5-min Rain = 0
KFAS 082315Z 14004KT 04/M03 A3021 RMK A01 T00391025  RH  064%=      5-min Rain = 0
KFAS 082320Z 13004KT 04/M03 A3021 RMK A01 T00361025  RH  064%=      5-min Rain = 0
KFAS 082325Z 12003KT 03/M03 A3022 RMK A01 T00341026  RH  065%=      5-min Rain = 0
KFAS 082330Z 12004KT 03/M03 A3022 RMK A01 T00311026  RH  067%=      5-min Rain = 0
KFAS 082335Z 12004KT 03/M03 A3022 RMK A01 T00271028  RH  067%=      5-min Rain = 0
KFAS 082340Z 11004KT 02/M03 A3022 RMK A01 T00241028  RH  069%=      5-min Rain = 0
KFAS 082345Z 12005KT 02/M03 A3022 RMK A01 T00221029  RH  070%=      5-min Rain = 0
KFAS 082350Z 13004KT 02/M03 A3022 RMK A01 T00191031  RH  070%=      5-min Rain = 0
KFAS 082355Z 15005KT 02/M03 A3022 RMK A01 T00161032  RH  070%=      5-min Rain = 0
KFAS 090000Z 15005KT 01/M04 A3023 RMK A01 T00091035  RH  073%=      5-min Rain = 0
KFAS 090005Z 16005KT 01/M03 A3023 RMK A01 T00051034  RH  076%=      5-min Rain = 0
KFAS 090010Z 16005KT 00/M03 A3023 RMK A01 T00041033  RH  077%=      5-min Rain = 0
KFAS 090015Z 16005KT 00/M03 A3023 RMK A01 T00021033  RH  078%=      5-min Rain = 0
KFAS 090020Z 17005KT 00/M03 A3023 RMK A01 T00021032  RH  079%=      5-min Rain = 0
KFAS 090025Z 17005KT 00/M03 A3023 RMK A01 T00011032  RH  079%=      5-min Rain = 0
KFAS 090030Z 16004KT 00/03 A3023 RMK A01 T00000-31  RH  080%=      5-min Rain = 0
KFAS 090035Z 16005KT 00/03 A3023 RMK A01 T00000-30  RH  081%=      5-min Rain = 0
KFAS 090040Z 14004KT M00/M03 A3024 RMK A01 T10011032  RH  080%=      5-min Rain = 0
KFAS 090045Z 09005KT M01/M04 A3024 RMK A01 T10061036  RH  080%=      5-min Rain = 0
KFAS 090050Z 11005KT M01/M04 A3024 RMK A01 T10061036  RH  081%=      5-min Rain = 0
KFAS 090055Z 11005KT M01/M04 A3024 RMK A01 T10051036  RH  080%=      5-min Rain = 0
KFAS 090100Z 11005KT M01/M04 A3024 RMK A01 T10071039  RH  079%=      5-min Rain = 0
KFAS 090105Z 12005KT M01/M04 A3024 RMK A01 T10071038  RH  080%=      5-min Rain = 0
KFAS 090110Z 13006KT M01/M04 A3024 RMK A01 T10071037  RH  081%=      5-min Rain = 0
KFAS 090115Z 13005KT M01/M04 A3024 RMK A01 T10101040  RH  080%=      5-min Rain = 0
KFAS 090120Z 14005KT M01/M04 A3024 RMK A01 T10121040  RH  082%=      5-min Rain = 0
KFAS 090125Z 13006KT M02/M04 A3024 RMK A01 T10151041  RH  083%=      5-min Rain = 0
KFAS 090130Z 13006KT M02/M05 A3024 RMK A01 T10191045  RH  083%=      5-min Rain = 0
KFAS 090135Z 13007KT M02/M05 A3024 RMK A01 T10211045  RH  083%=      5-min Rain = 0
KFAS 090140Z 14006KT M02/M05 A3024 RMK A01 T10211045  RH  084%=      5-min Rain = 0
KFAS 090145Z 15006KT M02/M05 A3025 RMK A01 T10241048  RH  084%=      5-min Rain = 0
KFAS 090150Z 15006KT M03/M05 A3025 RMK A01 T10281050  RH  085%=      5-min Rain = 0
KFAS 090155Z 15006KT M03/M05 A3025 RMK A01 T10291048  RH  087%=      5-min Rain = 0
KFAS 090200Z 15006KT M03/M04 A3025 RMK A01 T10281044  RH  089%=      5-min Rain = 0
KFAS 090205Z 15006KT M03/M04 A3025 RMK A01 T10291044  RH  089%=      5-min Rain = 0
KFAS 090210Z 16005KT M03/M04 A3026 RMK A01 T10301044  RH  090%=      5-min Rain = 0
KFAS 090215Z 17006KT M03/M05 A3026 RMK A01 T10311045  RH  091%=      5-min Rain = 0
KFAS 090220Z 17007KT M03/M05 A3026 RMK A01 T10331046  RH  091%=      5-min Rain = 0
KFAS 090225Z 17007KT M03/M04 A3026 RMK A01 T10331044  RH  092%=      5-min Rain = 0
KFAS 090230Z 17007KT M03/M04 A3026 RMK A01 T10301040  RH  093%=      5-min Rain = 0
KFAS 090235Z 17008KT M03/M04 A3026 RMK A01 T10271037  RH  094%=      5-min Rain = 0
KFAS 090240Z 18007KT M03/M03 A3026 RMK A01 T10251034  RH  094%=      5-min Rain = 0
KFAS 090245Z 19007KT M03/M03 A3026 RMK A01 T10251034  RH  094%=      5-min Rain = 0
KFAS 090250Z 19007KT M03/M04 A3027 RMK A01 T10271036  RH  094%=      5-min Rain = 0
KFAS 090255Z 19008KT M03/M04 A3027 RMK A01 T10281038  RH  094%=      5-min Rain = 0
KFAS 090300Z 19007KT M03/M04 A3027 RMK A01 T10301039  RH  094%=      5-min Rain = 0
KFAS 090305Z 20008KT M03/M04 A3027 RMK A01 T10301038  RH  095%=      5-min Rain = 0
KFAS 090310Z 20007KT M03/M04 A3027 RMK A01 T10301038  RH  095%=      5-min Rain = 0
KFAS 090315Z 20008KT M03/M04 A3027 RMK A01 T10321041  RH  094%=      5-min Rain = 0
KFAS 090320Z 21007KT M03/M04 A3027 RMK A01 T10331040  RH  095%=      5-min Rain = 0
KFAS 090325Z 21007KT M03/M04 A3027 RMK A01 T10311038  RH  096%=      5-min Rain = 0
KFAS 090330Z 21007KT M03/M04 A3028 RMK A01 T10291036  RH  096%=      5-min Rain = 0
KFAS 090335Z 21007KT M03/M04 A3028 RMK A01 T10281035  RH  096%=      5-min Rain = 0
KFAS 090340Z 21007KT M03/M04 A3028 RMK A01 T10281035  RH  096%=      5-min Rain = 0
KFAS 090345Z 21007KT M03/M04 A3028 RMK A01 T10291036  RH  096%=      5-min Rain = 0
KFAS 090350Z 21006KT M03/M04 A3028 RMK A01 T10301037  RH  096%=      5-min Rain = 0
KFAS 090355Z 21006KT M03/M04 A3028 RMK A01 T10321039  RH  095%=      5-min Rain = 0
KFAS 090400Z 21005KT M03/M04 A3028 RMK A01 T10341041  RH  095%=      5-min Rain = 0
KFAS 090405Z 21004KT M04/M04 A3028 RMK A01 T10351041  RH  096%=      5-min Rain = 0
KFAS 090410Z 22005KT M04/M04 A3028 RMK A01 T10351042  RH  096%=      5-min Rain = 0
KFAS 090415Z 23005KT M04/M05 A3029 RMK A01 T10401047  RH  095%=      5-min Rain = 0
KFAS 090420Z 23005KT M04/M05 A3029 RMK A01 T10421048  RH  096%=      5-min Rain = 0
KFAS 090425Z 24004KT M04/M05 A3029 RMK A01 T10431049  RH  096%=      5-min Rain = 0
KFAS 090430Z 25003KT M05/M05 A3029 RMK A01 T10471053  RH  096%=      5-min Rain = 0
KFAS 090435Z 25002KT M05/M06 A3029 RMK A01 T10511057  RH  095%=      5-min Rain = 0
KFAS 090440Z 25003KT M05/M06 A3029 RMK A01 T10511057  RH  096%=      5-min Rain = 0
KFAS 090445Z 26002KT M05/M06 A3029 RMK A01 T10531058  RH  096%=      5-min Rain = 0
KFAS 090450Z 26004KT M06/M06 A3029 RMK A01 T10551060  RH  096%=      5-min Rain = 0
KFAS 090455Z 25004KT M05/M06 A3029 RMK A01 T10531057  RH  097%=      5-min Rain = 0
KFAS 090500Z 26004KT M05/M06 A3029 RMK A01 T10531058  RH  097%=      5-min Rain = 0
KFAS 090505Z 26003KT M06/M06 A3029 RMK A01 T10561061  RH  096%=      5-min Rain = 0
KFAS 090510Z 25003KT M06/M06 A3029 RMK A01 T10561060  RH  097%=      5-min Rain = 0
KFAS 090515Z 25004KT M05/M06 A3029 RMK A01 T10541058  RH  097%=      5-min Rain = 0
KFAS 090520Z 26003KT M05/M06 A3029 RMK A01 T10531056  RH  097%=      5-min Rain = 0
KFAS 090525Z 26003KT M05/M06 A3029 RMK A01 T10531058  RH  097%=      5-min Rain = 0
KFAS 090530Z 24004KT M05/M06 A3029 RMK A01 T10541058  RH  097%=      5-min Rain = 0
KFAS 090535Z 24003KT M05/M05 A3029 RMK A01 T10501054  RH  098%=      5-min Rain = 0
KFAS 090540Z 25003KT M05/M06 A3029 RMK A01 T10521056  RH  097%=      5-min Rain = 0
KFAS 090545Z 27002KT M06/M06 A3029 RMK A01 T10591064  RH  096%=      5-min Rain = 0
KFAS 090550Z 27003KT M06/M07 A3029 RMK A01 T10601065  RH  097%=      5-min Rain = 0
KFAS 090555Z 27003KT M06/M06 A3029 RMK A01 T10591062  RH  097%=      5-min Rain = 0

Page generated in 0.0123 seconds.